Latest Coastal Weather Observations for Troughton Island

IDD60701

Issued at 9:01 am CST Thursday 1 September 2016 (issued every 10 minutes, with the page automatically refreshed every 10 minutes)

About coastal observations | Map of coastal stations | Coastal observations for NT | Marine services | Other Formats
Station Details ID: 001007 Name: TROUGHTON ISLAND Lat: -13.75 Lon: 126.15 Height: 6.0 m
Data from the previous 72 hours. | See also: Recent months at Troughton Island
Date/Time
CST
Temp
°C
Wind Pressure Rain since
9am
mm
Weather Cloud Vis
km
Sea
Height
m
Swell
Dir  Spd
kts
Gust
kts
hPa Trend Height
m
Period
s
Dir
01/09:00am 28.3 SW 11 13 1014.2 - 0.0 - - - - - - -
01/08:30am 27.7 SW 11 13 1014.1 - 0.0 - - - - - - -
01/08:00am 27.0 SW 11 13 1013.8 - 0.0 - - - - - - -
01/07:30am 26.6 SW 11 14 1013.6 - 0.0 - - - - - - -
01/07:00am 26.5 SW 10 13 1013.1 - 0.0 - - - - - - -
01/06:30am 26.4 SW 10 12 1012.8 - 0.0 - - - - - - -
01/06:00am 26.4 SW 10 13 1012.5 - 0.0 - - - - - - -
01/05:30am 26.3 SW 9 11 1012.2 - 0.0 - - - - - - -
01/05:00am 26.5 SW 9 11 1012.3 - 0.0 - - - - - - -
01/04:30am 26.4 SW 8 10 1012.4 - 0.0 - - - - - - -
01/04:00am 26.3 SSW 8 9 1012.6 - 0.0 - - - - - - -
01/03:30am 26.3 SW 6 7 1012.6 - 0.0 - - - - - - -
01/03:00am 26.2 SW 7 9 1012.7 - 0.0 - - - - - - -
01/02:30am 26.2 SW 7 8 1013.2 - 0.0 - - - - - - -
01/02:00am 26.3 SW 7 8 1013.7 - 0.0 - - - - - - -
01/01:30am 26.2 WSW 6 6 1014.0 - 0.0 - - - - - - -
01/01:00am 26.3 WSW 5 6 1014.4 - 0.0 - - - - - - -
01/12:30am 26.5 WSW 5 6 1014.7 - 0.0 - - - - - - -
01/12:00am 26.5 WNW 5 6 1014.9 - 0.0 - - - - - - -
 
Date/Time
CST
Temp
°C
Wind Pressure Rain since
9am
mm
Weather Cloud Vis
km
Sea
Height
m
Swell
Dir  Spd
kts
Gust
kts
hPa Trend Height
m
Period
s
Dir
31/11:30pm 26.5 W 6 7 1014.9 - 0.0 - - - - - - -
31/11:00pm 26.6 W 5 6 1015.1 - 0.0 - - - - - - -
31/10:30pm 26.5 W 4 5 1015.1 - 0.0 - - - - - - -
31/10:00pm 26.5 WNW 5 5 1015.0 - 0.0 - - - - - - -
31/09:30pm 26.6 NW 5 6 1014.8 - 0.0 - - - - - - -
31/09:00pm 26.5 NW 5 6 1014.4 - 0.0 - - - - - - -
31/08:30pm 26.7 NNW 5 5 1014.2 - 0.0 - - - - - - -
31/08:00pm 27.3 N 6 7 1014.1 - 0.0 - - - - - - -
31/07:30pm 27.2 N 6 7 1013.6 - 0.0 - - - - - - -
31/07:00pm 27.4 N 6 7 1013.4 - 0.0 - - - - - - -
31/06:30pm 27.4 N 7 9 1013.2 - 0.0 - - - - - - -
31/06:00pm 27.4 N 7 9 1012.9 - 0.0 - - - - - - -
31/05:30pm 28.1 N 7 11 1012.8 - 0.0 - - - - - - -
31/05:00pm 28.2 N 8 10 1012.6 - 0.0 - - - - - - -
31/04:30pm 28.0 N 7 9 1012.6 - 0.0 - - - - - - -
31/04:00pm 28.8 NNE 6 8 1012.8 - 0.0 - - - - - - -
31/03:30pm 29.2 NE 6 8 1013.2 - 0.0 - - - - - - -
31/03:00pm 29.3 NE 6 8 1013.7 - 0.0 - - - - - - -
31/02:30pm 29.6 ENE 6 8 1014.0 - 0.0 - - - - - - -
31/02:00pm 28.8 ENE 7 9 1014.4 - 0.0 - - - - - - -
31/01:30pm 29.0 ENE 7 9 1014.8 - 0.0 - - - - - - -
31/01:00pm 29.0 ENE 7 10 1015.1 - 0.0 - - - - - - -
31/12:30pm 29.3 E 7 9 1015.6 - 0.0 - - - - - - -
31/12:00pm 29.4 E 7 8 1016.1 - 0.0 - - - - - - -
31/11:30am 29.3 E 6 7 1016.4 - 0.0 - - - - - - -
31/11:00am 28.7 ESE 7 8 1016.7 - 0.0 - - - - - - -
31/10:30am 28.7 E 6 8 1016.8 - 0.0 - - - - - - -
31/10:00am 28.6 E 7 9 1016.7 - 0.0 - - - - - - -
31/09:30am 28.1 ESE 6 7 1016.5 - 0.0 - - - - - - -
31/09:00am 27.9 ESE 6 7 1016.1 - 0.0 - - - - - - -
31/08:30am 27.6 E 5 6 1015.8 - 0.0 - - - - - - -
31/08:00am 26.8 ESE 4 5 1015.5 - 0.0 - - - - - - -
31/07:30am 26.3 E 5 6 1015.2 - 0.0 - - - - - - -
31/07:00am 26.0 SE 5 6 1015.0 - 0.0 - - - - - - -
31/06:30am 25.7 SE 4 4 1014.6 - 0.0 - - - - - - -
31/06:00am 25.7 SSE 3 4 1014.1 - 0.0 - - - - - - -
31/05:30am 25.5 S 3 4 1013.9 - 0.0 - - - - - - -
31/05:00am 25.6 SSW 3 4 1013.9 - 0.0 - - - - - - -
31/04:30am 25.8 SSW 3 5 1013.8 - 0.0 - - - - - - -
31/04:00am 25.1 ENE 1 4 1013.9 - 0.0 - - - - - - -
31/03:30am 25.6 CALM 0 0 1013.7 - 0.0 - - - - - - -
31/03:00am 25.7 CALM 0 0 1013.9 - 0.0 - - - - - - -
31/02:30am 26.1 CALM 0 0 1014.1 - 0.0 - - - - - - -
31/02:00am 26.3 CALM 0 0 1014.3 - 0.0 - - - - - - -
31/01:30am 26.3 NE 1 3 1014.4 - 0.0 - - - - - - -
31/01:00am 26.4 NE 4 4 1014.6 - 0.0 - - - - - - -
31/12:30am 26.5 NE 3 4 1014.9 - 0.0 - - - - - - -
31/12:00am 26.6 NNE 3 4 1014.9 - 0.0 - - - - - - -
 
Date/Time
CST
Temp
°C
Wind Pressure Rain since
9am
mm
Weather Cloud Vis
km
Sea
Height
m
Swell
Dir  Spd
kts
Gust
kts
hPa Trend Height
m
Period
s
Dir
30/11:30pm 26.7 NE 5 6 1015.0 - 0.0 - - - - - - -
30/11:00pm 26.9 NE 6 8 1015.2 - 0.0 - - - - - - -
30/10:30pm 27.0 NE 7 8 1015.1 - 0.0 - - - - - - -
30/10:00pm 27.1 NE 7 9 1015.0 - 0.0 - - - - - - -
30/09:30pm 27.1 NNE 7 9 1014.7 - 0.0 - - - - - - -
30/09:00pm 27.1 NE 7 8 1014.4 - 0.0 - - - - - - -
30/08:30pm 27.3 NNE 6 8 1014.2 - 0.0 - - - - - - -
30/08:00pm 27.5 NNE 6 8 1013.8 - 0.0 - - - - - - -
30/07:30pm 27.4 NNE 7 8 1013.5 - 0.0 - - - - - - -
30/07:00pm 27.6 NNE 6 8 1013.0 - 0.0 - - - - - - -
30/06:30pm 28.1 NNE 7 9 1012.7 - 0.0 - - - - - - -
30/06:00pm 28.5 NNE 8 10 1012.5 - 0.0 - - - - - - -
30/05:30pm 28.7 NNE 7 9 1012.5 - 0.0 - - - - - - -
30/05:00pm 28.9 NNE 6 9 1012.5 - 0.0 - - - - - - -
30/04:30pm 29.0 NNE 6 9 1012.4 - 0.0 - - - - - - -
30/04:00pm 29.2 NE 6 8 1012.5 - 0.0 - - - - - - -
30/03:30pm 29.6 NNE 7 10 1012.6 - 0.0 - - - - - - -
30/03:00pm 29.3 NE 7 9 1012.9 - 0.0 - - - - - - -
30/02:30pm 29.3 NE 7 9 1013.1 - 0.0 - - - - - - -
30/02:00pm 29.4 NE 7 9 1013.5 - 0.0 - - - - - - -
30/01:30pm 30.0 NE 8 10 1014.0 - 0.0 - - - - - - -
30/01:00pm 30.2 NE 8 10 1014.5 - 0.0 - - - - - - -
30/12:30pm 29.8 NNE 8 9 1015.1 - 0.0 - - - - - - -
30/12:00pm 30.0 NNE 9 11 1015.5 - 0.0 - - - - - - -
30/11:30am 29.7 NNE 10 12 1015.7 - 0.0 - - - - - - -
30/11:00am 30.4 NNE 9 12 1016.1 - 0.0 - - - - - - -
30/10:30am 29.8 NNE 9 12 1016.2 - 0.0 - - - - - - -
30/10:00am 28.6 NNE 10 13 1015.9 - 0.0 - - - - - - -
30/09:30am 27.7 N 9 11 1015.9 - 0.0 - - - - - - -
30/09:00am 27.8 N 9 11 1015.5 - 0.0 - - - - - - -
30/08:30am 27.6 NNE 9 11 1015.3 - 0.0 - - - - - - -
30/08:00am 27.1 NNE 9 11 1015.0 - 0.0 - - - - - - -
30/07:30am 26.4 NNE 8 10 1014.8 - 0.0 - - - - - - -
30/07:00am 26.2 N 8 9 1014.5 - 0.0 - - - - - - -
30/06:30am 26.0 N 7 8 1014.2 - 0.0 - - - - - - -
30/06:00am 26.2 N 7 7 1013.8 - 0.0 - - - - - - -
30/05:30am 26.0 N 6 7 1013.5 - 0.0 - - - - - - -
30/05:00am 26.2 N 6 7 1013.3 - 0.0 - - - - - - -
30/04:30am 26.1 N 6 7 1013.2 - 0.0 - - - - - - -
30/04:00am 26.4 N 7 9 1013.2 - 0.0 - - - - - - -
30/03:30am 26.3 N 8 10 1013.2 - 0.0 - - - - - - -
30/03:00am 26.5 NNE 7 9 1013.5 - 0.0 - - - - - - -
30/02:30am 26.5 N 7 8 1013.7 - 0.0 - - - - - - -
30/02:00am 26.6 NNE 8 10 1013.8 - 0.0 - - - - - - -
30/01:30am 26.7 N 10 11 1013.6 - 0.0 - - - - - - -
30/01:00am 26.8 NNE 9 12 1013.7 - 0.0 - - - - - - -
30/12:30am 26.8 NNE 9 11 1014.0 - 0.0 - - - - - - -
30/12:00am 27.0 NNE 9 11 1013.9 - 0.0 - - - - - - -
 
Date/Time
CST
Temp
°C
Wind Pressure Rain since
9am
mm
Weather Cloud Vis
km
Sea
Height
m
Swell
Dir  Spd
kts
Gust
kts
hPa Trend Height
m
Period
s
Dir
29/11:30pm 27.0 NNE 9 12 1014.0 - 0.0 - - - - - - -
29/11:00pm 27.1 NNE 9 11 1014.0 - 0.0 - - - - - - -
29/10:30pm 27.2 N 9 11 1014.1 - 0.0 - - - - - - -
29/10:00pm 27.3 NNE 10 12 1014.1 - 0.0 - - - - - - -
29/09:30pm 27.6 NNE 9 11 1014.0 - 0.0 - - - - - - -
29/09:00pm 27.3 NNE 9 12 1013.4 - 0.0 - - - - - - -
29/08:30pm 27.4 NNE 10 13 1013.0 - 0.0 - - - - - - -
29/08:00pm 27.6 NNE 9 13 1012.7 - 0.0 - - - - - - -
29/07:30pm 27.6 NNE 10 14 1012.5 - 0.0 - - - - - - -
29/07:00pm 27.6 NNE 9 11 1012.1 - 0.0 - - - - - - -
29/06:30pm 27.8 N 10 12 1011.7 - 0.0 - - - - - - -
29/06:00pm 28.2 NNE 10 12 1011.6 - 0.0 - - - - - - -
29/05:30pm 28.1 N 9 11 1011.5 - 0.0 - - - - - - -
29/05:00pm 28.2 N 9 12 1011.5 - 0.0 - - - - - - -
29/04:30pm 28.3 NNE 8 10 1011.5 - 0.0 - - - - - - -
29/04:00pm 29.1 NNE 8 10 1011.6 - 0.0 - - - - - - -
29/03:30pm 28.6 NNE 7 10 1011.6 - 0.0 - - - - - - -
29/03:00pm 28.7 N 8 11 1011.7 - 0.0 - - - - - - -
29/02:30pm 29.0 N 8 11 1011.9 - 0.0 - - - - - - -
29/02:00pm 28.8 N 10 12 1012.3 - 0.0 - - - - - - -
29/01:30pm 28.9 NNE 10 13 1012.4 - 0.0 - - - - - - -
29/01:00pm 29.8 NNE 10 12 1012.6 - 0.0 - - - - - - -
29/12:30pm 29.3 NNE 10 13 1013.0 - 0.0 - - - - - - -
29/12:00pm 29.3 NNE 9 11 1013.2 - 0.0 - - - - - - -
29/11:30am 29.6 NNE 9 11 1013.5 - 0.0 - - - - - - -
29/11:00am 28.6 NNE 9 11 1013.7 - 0.0 - - - - - - -

Other Formats:

Comma delimited format used in spreadsheet applications
http://www.bom.gov.au/fwo/IDD60701/IDD60701.94102.axf

JavaScript Object Notation format (JSON) in row-major order
http://www.bom.gov.au/fwo/IDD60701/IDD60701.94102.json